createdAt,value
2023-07-10T00:04:44.023Z,16.17
2023-07-10T00:09:46.349Z,17.73
2023-07-10T00:14:50.281Z,13.77
2023-07-10T00:19:53.165Z,13.88
2023-07-10T00:24:55.560Z,15.98
2023-07-10T00:29:59.349Z,17.58
2023-07-10T00:35:02.187Z,23.23
2023-07-10T00:40:19.167Z,29.38
2023-07-10T00:45:23.008Z,26.60
2023-07-10T00:50:36.408Z,21.98
2023-07-10T00:55:40.422Z,26.70
2023-07-10T01:01:04.564Z,20.88
2023-07-10T01:06:23.750Z,25.02
2023-07-10T01:11:27.042Z,19.75
2023-07-10T01:16:31.817Z,19.95
2023-07-10T01:21:38.885Z,20.17
2023-07-10T01:26:42.039Z,20.38
2023-07-10T01:31:46.734Z,18.83
2023-07-10T01:36:50.867Z,19.60
2023-07-10T01:41:53.796Z,20.08
2023-07-10T01:46:57.637Z,22.67
2023-07-10T01:52:03.555Z,21.58
2023-07-10T01:57:07.512Z,14.98
2023-07-10T02:02:12.077Z,17.08
2023-07-10T02:07:15.163Z,16.88
2023-07-10T02:12:17.548Z,15.90
2023-07-10T02:17:20.628Z,17.05
2023-07-10T02:22:23.989Z,17.20
2023-07-10T02:27:26.337Z,18.00
2023-07-10T02:32:29.896Z,16.98
2023-07-10T02:37:32.168Z,13.95
2023-07-10T02:42:35.767Z,13.70
2023-07-10T02:47:39.842Z,15.60
2023-07-10T02:52:43.333Z,16.15
2023-07-10T02:57:45.831Z,14.77
2023-07-10T03:02:48.387Z,9.15
2023-07-10T03:07:51.850Z,12.77
2023-07-10T03:12:54.556Z,11.38
2023-07-10T03:17:57.378Z,10.57
2023-07-10T03:23:00.290Z,11.43
2023-07-10T03:28:03.183Z,10.20
2023-07-10T03:33:06.196Z,9.82
2023-07-10T03:38:10.157Z,10.07
2023-07-10T03:43:13.471Z,12.40
2023-07-10T03:48:16.305Z,13.98
2023-07-10T03:53:19.553Z,12.25
2023-07-10T03:58:26.302Z,9.82
2023-07-10T04:03:32.201Z,11.98
2023-07-10T04:08:37.604Z,11.82
2023-07-10T04:13:40.144Z,11.73
2023-07-10T04:18:43.696Z,12.38
2023-07-10T04:23:47.579Z,11.73
2023-07-10T04:28:52.856Z,9.50
2023-07-10T04:33:58.759Z,10.95
2023-07-10T04:39:01.340Z,13.02
2023-07-10T04:44:04.322Z,10.10
2023-07-10T04:49:07.118Z,11.25
2023-07-10T04:54:11.755Z,8.57
2023-07-10T04:59:16.645Z,9.18
2023-07-10T05:04:19.022Z,9.15
2023-07-10T05:09:21.917Z,13.40
2023-07-10T05:14:24.559Z,12.18
2023-07-10T05:19:27.788Z,13.88
2023-07-10T05:24:31.961Z,15.48
2023-07-10T05:34:37.588Z,15.82
2023-07-10T05:39:40.122Z,8.20
2023-07-10T05:44:44.387Z,11.90
2023-07-10T05:49:50.923Z,7.53
2023-07-10T05:54:55.257Z,9.63
2023-07-10T05:59:58.150Z,5.95
2023-07-10T06:05:00.716Z,10.00
2023-07-10T06:10:03.945Z,11.55
2023-07-10T06:15:08.528Z,14.95
2023-07-10T06:20:11.304Z,8.90
2023-07-10T06:25:15.084Z,11.00
2023-07-10T06:30:17.474Z,9.35
2023-07-10T06:35:20.536Z,14.57
2023-07-10T06:40:23.277Z,9.65
2023-07-10T06:45:26.697Z,9.82
2023-07-10T06:50:31.199Z,7.53
2023-07-10T06:55:33.716Z,9.15
2023-07-10T07:00:36.385Z,7.05
2023-07-10T07:05:42.416Z,10.40
2023-07-10T07:10:46.699Z,8.95
2023-07-10T07:20:55.258Z,9.10
2023-07-10T07:25:58.702Z,10.50
2023-07-10T07:31:06.836Z,8.15
2023-07-10T07:36:09.888Z,7.57
2023-07-10T07:41:13.144Z,7.78
2023-07-10T07:46:16.633Z,5.03
2023-07-10T07:51:19.063Z,7.35
2023-07-10T07:56:22.006Z,8.45
2023-07-10T08:01:25.487Z,6.82
2023-07-10T08:06:34.230Z,9.05
2023-07-10T08:11:37.126Z,8.57
2023-07-10T08:16:41.625Z,6.10
2023-07-10T08:21:44.609Z,7.18
2023-07-10T08:26:48.218Z,8.43
2023-07-10T08:31:51.087Z,6.50
2023-07-10T08:36:54.941Z,6.13
2023-07-10T08:42:02.870Z,6.22
2023-07-10T08:47:17.538Z,6.28
2023-07-10T08:52:34.511Z,6.85
2023-07-10T08:57:40.132Z,9.52
2023-07-10T09:03:01.750Z,6.43
2023-07-10T09:08:08.053Z,6.82
2023-07-10T09:13:20.595Z,7.28
2023-07-10T09:18:30.023Z,4.63
2023-07-10T09:23:36.043Z,7.38
2023-07-10T09:28:40.517Z,10.57
2023-07-10T09:34:02.705Z,5.85
2023-07-10T09:39:05.487Z,5.57
2023-07-10T09:44:21.509Z,7.25
2023-07-10T09:49:24.935Z,8.48
2023-07-10T09:54:40.009Z,12.35
2023-07-10T09:59:50.541Z,6.20
2023-07-10T10:05:14.588Z,5.57
2023-07-10T10:10:28.958Z,6.90
2023-07-10T10:15:54.256Z,7.57
2023-07-10T10:20:58.220Z,12.20
2023-07-10T10:26:18.280Z,22.35
2023-07-10T10:31:27.867Z,14.90
2023-07-10T10:36:47.183Z,25.35
2023-07-10T10:42:04.932Z,26.80
2023-07-10T10:47:39.347Z,21.60
2023-07-10T10:53:07.517Z,22.52
2023-07-10T10:58:48.010Z,26.90
2023-07-10T11:03:56.312Z,21.95
2023-07-10T11:09:04.439Z,16.30
2023-07-10T11:14:08.812Z,20.33
2023-07-10T11:19:40.308Z,16.77
2023-07-10T11:24:50.792Z,16.88
2023-07-10T11:30:17.041Z,23.17
2023-07-10T11:35:22.052Z,19.80
2023-07-10T11:40:28.595Z,15.18
2023-07-10T11:45:45.128Z,17.67
2023-07-10T11:50:50.129Z,13.15
2023-07-10T11:55:56.089Z,16.42
2023-07-10T12:01:17.529Z,14.25
2023-07-10T12:06:26.674Z,12.30
2023-07-10T12:11:35.458Z,11.15
2023-07-10T12:17:11.037Z,13.32
2023-07-10T12:22:26.709Z,11.55
2023-07-10T12:32:43.714Z,11.07
2023-07-10T12:42:52.689Z,9.63
2023-07-10T12:48:14.732Z,11.13
2023-07-10T12:53:23.519Z,9.88
2023-07-10T12:58:35.709Z,10.18
2023-07-10T13:03:38.551Z,7.65
2023-07-10T13:08:42.200Z,10.68
2023-07-10T13:13:46.155Z,11.68
2023-07-10T13:18:49.421Z,9.90
2023-07-10T13:23:56.242Z,9.35
2023-07-10T13:28:58.714Z,7.35
2023-07-10T13:34:01.281Z,8.65
2023-07-10T13:39:04.492Z,9.13
2023-07-10T13:44:07.619Z,13.35
2023-07-10T13:49:14.561Z,11.60
2023-07-10T13:54:17.788Z,8.00
2023-07-10T13:59:21.852Z,8.77
2023-07-10T14:04:24.431Z,7.57
2023-07-10T14:09:32.083Z,10.50
2023-07-10T14:14:36.483Z,7.97
2023-07-10T14:19:38.882Z,6.88
2023-07-10T14:24:42.126Z,7.40
2023-07-10T14:29:45.100Z,7.78
2023-07-10T14:34:49.315Z,7.55
2023-07-10T14:39:52.592Z,6.13
2023-07-10T14:44:55.791Z,6.93
2023-07-10T14:49:58.775Z,6.85
2023-07-10T14:55:04.651Z,8.75
2023-07-10T15:00:20.079Z,8.40
2023-07-10T15:05:25.068Z,6.00
2023-07-10T15:10:29.613Z,9.23
2023-07-10T15:15:38.844Z,5.63
2023-07-10T15:20:41.821Z,8.57
2023-07-10T15:25:44.785Z,6.05
2023-07-10T15:30:55.555Z,5.55
2023-07-10T15:35:59.963Z,5.28
2023-07-10T15:41:04.114Z,18.92
2023-07-10T15:46:06.853Z,7.25
2023-07-10T15:51:24.352Z,11.00
2023-07-10T16:01:36.156Z,5.30
2023-07-10T16:06:40.131Z,5.68
2023-07-10T16:16:46.400Z,5.53
2023-07-10T16:21:53.530Z,8.70
2023-07-10T16:26:56.622Z,6.97
2023-07-10T16:31:59.047Z,3.95
2023-07-10T16:37:01.592Z,4.05
2023-07-10T16:42:04.358Z,4.13
2023-07-10T16:47:19.115Z,3.95
2023-07-10T16:52:21.652Z,3.75
2023-07-10T16:57:26.018Z,2.47
2023-07-10T17:02:28.747Z,2.22
2023-07-10T17:07:31.148Z,1.90
2023-07-10T17:12:33.882Z,9.93
2023-07-10T17:17:36.729Z,2.08
2023-07-10T17:22:39.289Z,5.07
2023-07-10T17:27:42.596Z,4.72
2023-07-10T17:32:46.337Z,3.10
2023-07-10T17:37:50.993Z,2.85
2023-07-10T17:42:53.563Z,5.88
2023-07-10T17:47:55.979Z,4.18
2023-07-10T17:52:58.523Z,3.17
2023-07-10T17:58:12.517Z,9.65
2023-07-10T18:03:17.701Z,2.88
2023-07-10T18:08:31.416Z,3.10
2023-07-10T18:13:40.149Z,4.50
2023-07-10T18:18:43.055Z,5.03
2023-07-10T18:23:45.536Z,5.43
2023-07-10T18:28:50.795Z,5.75
2023-07-10T18:33:56.395Z,4.38
2023-07-10T18:38:59.743Z,5.13
2023-07-10T18:44:05.466Z,6.72
2023-07-10T18:49:24.430Z,5.78
2023-07-10T18:54:27.703Z,5.35
2023-07-10T18:59:30.446Z,5.03
2023-07-10T19:04:33.105Z,4.47
2023-07-10T19:09:35.595Z,3.45
2023-07-10T19:14:38.274Z,4.95
2023-07-10T19:19:47.527Z,3.83
2023-07-10T19:24:50.097Z,4.43
2023-07-10T19:29:52.496Z,9.50
2023-07-10T19:34:54.955Z,2.78
2023-07-10T19:39:58.995Z,3.10
2023-07-10T19:45:02.721Z,4.07
2023-07-10T19:50:19.220Z,2.97
2023-07-10T19:55:22.124Z,5.15
2023-07-10T20:00:28.920Z,4.00
2023-07-10T20:05:31.775Z,4.05
2023-07-10T20:10:35.146Z,4.40
2023-07-10T20:15:38.594Z,3.90
2023-07-10T20:20:41.570Z,3.30
2023-07-10T20:25:46.737Z,2.95
2023-07-10T20:35:54.382Z,4.72
2023-07-10T20:40:57.795Z,2.60
2023-07-10T20:46:11.036Z,2.72
2023-07-10T20:51:26.062Z,3.63
2023-07-10T20:56:32.013Z,3.25
2023-07-10T21:01:34.558Z,1.80
2023-07-10T21:06:38.068Z,0.82
2023-07-10T21:11:40.404Z,1.20
2023-07-10T21:16:45.323Z,0.60
2023-07-10T21:21:49.671Z,2.42
2023-07-10T21:26:58.392Z,1.83
2023-07-10T21:32:01.430Z,2.17
2023-07-10T21:37:05.136Z,2.08
2023-07-10T21:42:18.458Z,3.80
2023-07-10T21:47:22.004Z,4.60
2023-07-10T21:52:25.572Z,2.35
2023-07-10T21:57:28.669Z,3.90
2023-07-10T22:02:31.752Z,9.07
2023-07-10T22:07:34.350Z,2.55
2023-07-10T22:12:36.716Z,4.65
2023-07-10T22:17:40.673Z,3.45
2023-07-10T22:22:43.325Z,1.10
2023-07-10T22:27:46.553Z,2.47
2023-07-10T22:32:49.063Z,3.45
2023-07-10T22:37:53.254Z,1.05
2023-07-10T22:42:56.234Z,2.22
2023-07-10T22:47:59.532Z,1.90
2023-07-10T22:53:03.029Z,2.45
2023-07-10T22:58:07.018Z,1.25
2023-07-10T23:03:10.613Z,1.10
2023-07-10T23:08:13.653Z,3.63
2023-07-10T23:13:16.353Z,2.15
2023-07-10T23:18:19.080Z,0.90
2023-07-10T23:23:22.470Z,0.50
2023-07-10T23:28:25.054Z,0.88
2023-07-10T23:33:27.412Z,3.03
2023-07-10T23:38:29.822Z,1.52
2023-07-10T23:43:32.384Z,3.72
2023-07-10T23:48:36.565Z,2.63
2023-07-10T23:53:40.594Z,2.58
2023-07-10T23:58:44.216Z,2.08
